Grosse Pointe Park, Michigan
Current Conditions -  °F | °C
As of 8:53 AM on Thursday 27 Nov 2014 (Local Time) from KDET Reporting Station
Overcast Overcast  
Wind Chill: 23°   Ceiling: 4200
Heat Index: 30°   Visibility: 10mi
Dew Point: 21°   Wind: 7mph
Humidity: 69%   Direction: 290°WNW
Pressure: 30.14"   Gusts: NA
Location:  42.4104°N, 82.941°W
Report Text: KDET 271353Z 29006KT 10SM OVC042 M01/M06 A3014 RMK AO2 SLP215 T10111061
Loading
Personal Weather Stations






























Interactive Weather Map New forecast layout! Learn more

10-Day Weather Forecast

Advertisements
Track Severe Weather on mobile